sensor_id;sensor_type;location;lat;lon;timestamp;temperature;humidity
32877;DHT22;19226;51.600;8.034;2023-07-02T00:00:50;18.10;99.90
32877;DHT22;19226;51.600;8.034;2023-07-02T00:03:38;18.10;99.90
32877;DHT22;19226;51.600;8.034;2023-07-02T00:06:22;18.00;99.90
32877;DHT22;19226;51.600;8.034;2023-07-02T00:09:07;18.00;99.90
32877;DHT22;19226;51.600;8.034;2023-07-02T00:11:53;18.00;99.90
32877;DHT22;19226;51.600;8.034;2023-07-02T00:14:37;18.00;99.90
32877;DHT22;19226;51.600;8.034;2023-07-02T00:17:22;17.90;99.90
32877;DHT22;19226;51.600;8.034;2023-07-02T00:20:08;18.00;99.90
32877;DHT22;19226;51.600;8.034;2023-07-02T00:23:00;18.00;99.90
32877;DHT22;19226;51.600;8.034;2023-07-02T00:25:45;17.90;99.90
32877;DHT22;19226;51.600;8.034;2023-07-02T00:28:29;18.00;99.90
32877;DHT22;19226;51.600;8.034;2023-07-02T00:31:14;18.00;99.90
32877;DHT22;19226;51.600;8.034;2023-07-02T00:34:00;18.00;99.90
32877;DHT22;19226;51.600;8.034;2023-07-02T00:36:48;18.00;99.90
32877;DHT22;19226;51.600;8.034;2023-07-02T00:39:32;18.00;99.90
32877;DHT22;19226;51.600;8.034;2023-07-02T00:42:17;17.90;99.90
32877;DHT22;19226;51.600;8.034;2023-07-02T00:45:02;17.90;99.90
32877;DHT22;19226;51.600;8.034;2023-07-02T00:47:47;17.90;99.90
32877;DHT22;19226;51.600;8.034;2023-07-02T00:50:33;17.90;99.90
32877;DHT22;19226;51.600;8.034;2023-07-02T00:53:17;17.90;99.90
32877;DHT22;19226;51.600;8.034;2023-07-02T00:56:02;17.90;99.90
32877;DHT22;19226;51.600;8.034;2023-07-02T00:58:48;17.90;99.90
32877;DHT22;19226;51.600;8.034;2023-07-02T01:01:34;17.90;99.90
32877;DHT22;19226;51.600;8.034;2023-07-02T01:04:21;17.80;99.90
32877;DHT22;19226;51.600;8.034;2023-07-02T01:07:11;17.90;99.90
32877;DHT22;19226;51.600;8.034;2023-07-02T01:09:55;17.90;99.90
32877;DHT22;19226;51.600;8.034;2023-07-02T01:12:41;17.90;99.90
32877;DHT22;19226;51.600;8.034;2023-07-02T01:15:26;17.90;99.90
32877;DHT22;19226;51.600;8.034;2023-07-02T01:18:14;17.90;99.90
32877;DHT22;19226;51.600;8.034;2023-07-02T01:20:59;17.90;99.90
32877;DHT22;19226;51.600;8.034;2023-07-02T01:23:46;17.90;99.90
32877;DHT22;19226;51.600;8.034;2023-07-02T01:26:32;17.90;99.90
32877;DHT22;19226;51.600;8.034;2023-07-02T01:29:19;17.80;99.90
32877;DHT22;19226;51.600;8.034;2023-07-02T01:32:06;17.80;99.90
32877;DHT22;19226;51.600;8.034;2023-07-02T01:34:50;17.90;99.90
32877;DHT22;19226;51.600;8.034;2023-07-02T01:37:39;17.80;99.90
32877;DHT22;19226;51.600;8.034;2023-07-02T01:40:24;17.80;99.90
32877;DHT22;19226;51.600;8.034;2023-07-02T01:43:08;17.80;99.90
32877;DHT22;19226;51.600;8.034;2023-07-02T01:45:53;17.80;99.90
32877;DHT22;19226;51.600;8.034;2023-07-02T01:48:40;17.80;99.90
32877;DHT22;19226;51.600;8.034;2023-07-02T01:51:25;17.80;99.90
32877;DHT22;19226;51.600;8.034;2023-07-02T01:54:09;17.80;99.90
32877;DHT22;19226;51.600;8.034;2023-07-02T01:56:55;17.80;99.90
32877;DHT22;19226;51.600;8.034;2023-07-02T01:59:40;17.70;99.90
32877;DHT22;19226;51.600;8.034;2023-07-02T02:02:25;17.70;99.90
32877;DHT22;19226;51.600;8.034;2023-07-02T02:05:10;17.70;99.90
32877;DHT22;19226;51.600;8.034;2023-07-02T02:07:55;17.60;99.90
32877;DHT22;19226;51.600;8.034;2023-07-02T02:10:40;17.60;99.90
32877;DHT22;19226;51.600;8.034;2023-07-02T02:13:25;17.60;99.90
32877;DHT22;19226;51.600;8.034;2023-07-02T02:16:10;17.60;99.90
32877;DHT22;19226;51.600;8.034;2023-07-02T02:18:58;17.60;99.90
32877;DHT22;19226;51.600;8.034;2023-07-02T02:21:43;17.50;99.90
32877;DHT22;19226;51.600;8.034;2023-07-02T02:24:28;17.50;99.90
32877;DHT22;19226;51.600;8.034;2023-07-02T02:27:13;17.50;99.90
32877;DHT22;19226;51.600;8.034;2023-07-02T02:29:57;17.50;99.90
32877;DHT22;19226;51.600;8.034;2023-07-02T02:32:42;17.40;99.90
32877;DHT22;19226;51.600;8.034;2023-07-02T02:35:29;17.40;99.90
32877;DHT22;19226;51.600;8.034;2023-07-02T02:38:13;17.40;99.90
32877;DHT22;19226;51.600;8.034;2023-07-02T02:41:00;17.30;99.90
32877;DHT22;19226;51.600;8.034;2023-07-02T02:43:50;17.30;99.90
32877;DHT22;19226;51.600;8.034;2023-07-02T02:46:36;17.30;99.90
32877;DHT22;19226;51.600;8.034;2023-07-02T02:49:21;17.30;99.90
32877;DHT22;19226;51.600;8.034;2023-07-02T02:52:06;17.20;99.90
32877;DHT22;19226;51.600;8.034;2023-07-02T02:54:51;17.20;99.90
32877;DHT22;19226;51.600;8.034;2023-07-02T02:57:38;17.20;99.90
32877;DHT22;19226;51.600;8.034;2023-07-02T03:00:23;17.20;99.90
32877;DHT22;19226;51.600;8.034;2023-07-02T03:03:08;17.20;99.90
32877;DHT22;19226;51.600;8.034;2023-07-02T03:05:53;17.20;99.90
32877;DHT22;19226;51.600;8.034;2023-07-02T03:08:39;17.20;99.90
32877;DHT22;19226;51.600;8.034;2023-07-02T03:11:23;17.10;99.90
32877;DHT22;19226;51.600;8.034;2023-07-02T03:14:08;17.10;99.90
32877;DHT22;19226;51.600;8.034;2023-07-02T03:16:53;17.20;99.90
32877;DHT22;19226;51.600;8.034;2023-07-02T03:19:38;17.20;99.90
32877;DHT22;19226;51.600;8.034;2023-07-02T03:22:23;17.10;99.90
32877;DHT22;19226;51.600;8.034;2023-07-02T03:25:09;17.10;99.90
32877;DHT22;19226;51.600;8.034;2023-07-02T03:27:53;17.10;99.90
32877;DHT22;19226;51.600;8.034;2023-07-02T03:30:38;17.10;99.90
32877;DHT22;19226;51.600;8.034;2023-07-02T03:33:23;17.10;99.90
32877;DHT22;19226;51.600;8.034;2023-07-02T03:36:07;17.10;99.90
32877;DHT22;19226;51.600;8.034;2023-07-02T03:38:52;17.10;99.90
32877;DHT22;19226;51.600;8.034;2023-07-02T03:41:37;17.20;99.90
32877;DHT22;19226;51.600;8.034;2023-07-02T03:44:21;17.20;99.90
32877;DHT22;19226;51.600;8.034;2023-07-02T03:47:06;17.10;99.90
32877;DHT22;19226;51.600;8.034;2023-07-02T03:49:52;17.10;99.90
32877;DHT22;19226;51.600;8.034;2023-07-02T03:52:38;17.10;99.90
32877;DHT22;19226;51.600;8.034;2023-07-02T03:55:23;17.10;99.90
32877;DHT22;19226;51.600;8.034;2023-07-02T03:58:07;17.10;99.90
32877;DHT22;19226;51.600;8.034;2023-07-02T04:00:52;17.10;99.90
32877;DHT22;19226;51.600;8.034;2023-07-02T04:03:36;17.10;99.90
32877;DHT22;19226;51.600;8.034;2023-07-02T04:06:21;17.10;99.90
32877;DHT22;19226;51.600;8.034;2023-07-02T04:09:07;17.20;99.90
32877;DHT22;19226;51.600;8.034;2023-07-02T04:11:53;17.10;99.90
32877;DHT22;19226;51.600;8.034;2023-07-02T04:14:37;17.10;99.90
32877;DHT22;19226;51.600;8.034;2023-07-02T04:17:22;17.10;99.90
32877;DHT22;19226;51.600;8.034;2023-07-02T04:20:07;17.10;99.90
32877;DHT22;19226;51.600;8.034;2023-07-02T04:22:52;17.10;99.90
32877;DHT22;19226;51.600;8.034;2023-07-02T04:25:36;17.10;99.90
32877;DHT22;19226;51.600;8.034;2023-07-02T04:28:21;17.10;99.90
32877;DHT22;19226;51.600;8.034;2023-07-02T04:31:05;17.10;99.90
32877;DHT22;19226;51.600;8.034;2023-07-02T04:33:50;17.10;99.90
32877;DHT22;19226;51.600;8.034;2023-07-02T04:36:34;17.10;99.90
32877;DHT22;19226;51.600;8.034;2023-07-02T04:39:19;17.10;99.90
32877;DHT22;19226;51.600;8.034;2023-07-02T04:42:03;17.20;99.90
32877;DHT22;19226;51.600;8.034;2023-07-02T04:44:48;17.20;99.90
32877;DHT22;19226;51.600;8.034;2023-07-02T04:47:32;17.20;99.90
32877;DHT22;19226;51.600;8.034;2023-07-02T04:50:18;17.20;99.90
32877;DHT22;19226;51.600;8.034;2023-07-02T04:53:03;17.20;99.90
32877;DHT22;19226;51.600;8.034;2023-07-02T04:55:47;17.30;99.90
32877;DHT22;19226;51.600;8.034;2023-07-02T04:58:32;17.30;99.90
32877;DHT22;19226;51.600;8.034;2023-07-02T05:01:16;17.30;99.90
32877;DHT22;19226;51.600;8.034;2023-07-02T05:04:01;17.30;99.90
32877;DHT22;19226;51.600;8.034;2023-07-02T05:06:46;17.30;99.90
32877;DHT22;19226;51.600;8.034;2023-07-02T05:09:31;17.40;99.90
32877;DHT22;19226;51.600;8.034;2023-07-02T05:12:17;17.40;99.90
32877;DHT22;19226;51.600;8.034;2023-07-02T05:15:02;17.40;99.90
32877;DHT22;19226;51.600;8.034;2023-07-02T05:17:46;17.40;99.90
32877;DHT22;19226;51.600;8.034;2023-07-02T05:20:31;17.40;99.90
32877;DHT22;19226;51.600;8.034;2023-07-02T05:23:16;17.40;99.90
32877;DHT22;19226;51.600;8.034;2023-07-02T05:26:01;17.50;99.90
32877;DHT22;19226;51.600;8.034;2023-07-02T05:28:46;17.50;99.90
32877;DHT22;19226;51.600;8.034;2023-07-02T05:31:32;17.50;99.90
32877;DHT22;19226;51.600;8.034;2023-07-02T05:34:18;17.50;99.90
32877;DHT22;19226;51.600;8.034;2023-07-02T05:37:03;17.50;99.90
32877;DHT22;19226;51.600;8.034;2023-07-02T05:39:47;17.50;99.90
32877;DHT22;19226;51.600;8.034;2023-07-02T05:42:32;17.40;99.90
32877;DHT22;19226;51.600;8.034;2023-07-02T05:45:17;17.40;99.90
32877;DHT22;19226;51.600;8.034;2023-07-02T05:48:02;17.40;99.90
32877;DHT22;19226;51.600;8.034;2023-07-02T05:50:46;17.50;99.90
32877;DHT22;19226;51.600;8.034;2023-07-02T05:53:31;17.50;99.90
32877;DHT22;19226;51.600;8.034;2023-07-02T05:56:16;17.60;99.90
32877;DHT22;19226;51.600;8.034;2023-07-02T05:59:03;17.60;99.90
32877;DHT22;19226;51.600;8.034;2023-07-02T06:01:48;17.60;99.90
32877;DHT22;19226;51.600;8.034;2023-07-02T06:04:32;17.60;99.90
32877;DHT22;19226;51.600;8.034;2023-07-02T06:07:17;17.70;99.90
32877;DHT22;19226;51.600;8.034;2023-07-02T06:10:02;17.70;99.90
32877;DHT22;19226;51.600;8.034;2023-07-02T06:12:47;17.70;99.90
32877;DHT22;19226;51.600;8.034;2023-07-02T06:15:32;17.80;99.90
32877;DHT22;19226;51.600;8.034;2023-07-02T06:18:16;17.70;99.90
32877;DHT22;19226;51.600;8.034;2023-07-02T06:21:01;17.80;99.90
32877;DHT22;19226;51.600;8.034;2023-07-02T06:23:47;17.90;99.90
32877;DHT22;19226;51.600;8.034;2023-07-02T06:26:32;17.90;99.90
32877;DHT22;19226;51.600;8.034;2023-07-02T06:29:17;18.00;99.90
32877;DHT22;19226;51.600;8.034;2023-07-02T06:32:01;18.20;99.90
32877;DHT22;19226;51.600;8.034;2023-07-02T06:34:46;18.40;99.90
32877;DHT22;19226;51.600;8.034;2023-07-02T06:37:31;18.50;99.90
32877;DHT22;19226;51.600;8.034;2023-07-02T06:40:16;18.60;99.90
32877;DHT22;19226;51.600;8.034;2023-07-02T06:43:00;18.60;99.90
32877;DHT22;19226;51.600;8.034;2023-07-02T06:45:45;18.60;99.90
32877;DHT22;19226;51.600;8.034;2023-07-02T06:48:30;18.60;99.90
32877;DHT22;19226;51.600;8.034;2023-07-02T06:51:15;18.60;99.90
32877;DHT22;19226;51.600;8.034;2023-07-02T06:54:00;18.70;99.90
32877;DHT22;19226;51.600;8.034;2023-07-02T06:56:44;18.80;99.90
32877;DHT22;19226;51.600;8.034;2023-07-02T06:59:29;18.90;99.90
32877;DHT22;19226;51.600;8.034;2023-07-02T07:02:13;18.90;99.90
32877;DHT22;19226;51.600;8.034;2023-07-02T07:04:58;18.90;99.90
32877;DHT22;19226;51.600;8.034;2023-07-02T07:07:42;19.00;99.90
32877;DHT22;19226;51.600;8.034;2023-07-02T07:10:27;19.10;99.90
32877;DHT22;19226;51.600;8.034;2023-07-02T07:13:12;19.20;99.90
32877;DHT22;19226;51.600;8.034;2023-07-02T07:15:57;19.20;99.90
32877;DHT22;19226;51.600;8.034;2023-07-02T07:18:44;19.20;99.90
32877;DHT22;19226;51.600;8.034;2023-07-02T07:21:29;19.30;99.90
32877;DHT22;19226;51.600;8.034;2023-07-02T07:24:13;19.40;99.90
32877;DHT22;19226;51.600;8.034;2023-07-02T07:26:58;19.40;99.90
32877;DHT22;19226;51.600;8.034;2023-07-02T07:29:42;19.40;99.90
32877;DHT22;19226;51.600;8.034;2023-07-02T07:32:27;19.50;99.90
32877;DHT22;19226;51.600;8.034;2023-07-02T07:35:11;19.60;99.90
32877;DHT22;19226;51.600;8.034;2023-07-02T07:37:55;19.80;99.90
32877;DHT22;19226;51.600;8.034;2023-07-02T07:40:40;19.90;99.90
32877;DHT22;19226;51.600;8.034;2023-07-02T07:43:25;19.90;99.90
32877;DHT22;19226;51.600;8.034;2023-07-02T07:46:09;20.00;99.90
32877;DHT22;19226;51.600;8.034;2023-07-02T07:48:54;19.90;99.90
32877;DHT22;19226;51.600;8.034;2023-07-02T07:51:38;19.90;99.90
32877;DHT22;19226;51.600;8.034;2023-07-02T07:54:23;19.90;99.90
32877;DHT22;19226;51.600;8.034;2023-07-02T07:57:08;20.20;99.90
32877;DHT22;19226;51.600;8.034;2023-07-02T07:59:53;20.30;99.90
32877;DHT22;19226;51.600;8.034;2023-07-02T08:02:39;20.20;99.90
32877;DHT22;19226;51.600;8.034;2023-07-02T08:05:24;20.20;99.90
32877;DHT22;19226;51.600;8.034;2023-07-02T08:08:09;20.20;99.90
32877;DHT22;19226;51.600;8.034;2023-07-02T08:10:53;20.20;99.90
32877;DHT22;19226;51.600;8.034;2023-07-02T08:13:38;20.10;99.90
32877;DHT22;19226;51.600;8.034;2023-07-02T08:16:22;20.20;99.90
32877;DHT22;19226;51.600;8.034;2023-07-02T08:19:07;20.20;99.90
32877;DHT22;19226;51.600;8.034;2023-07-02T08:21:51;20.40;99.90
32877;DHT22;19226;51.600;8.034;2023-07-02T08:24:36;20.50;99.90
32877;DHT22;19226;51.600;8.034;2023-07-02T08:27:21;20.70;99.90
32877;DHT22;19226;51.600;8.034;2023-07-02T08:30:07;20.70;99.90
32877;DHT22;19226;51.600;8.034;2023-07-02T08:32:52;20.80;99.90
32877;DHT22;19226;51.600;8.034;2023-07-02T08:35:39;20.80;99.90
32877;DHT22;19226;51.600;8.034;2023-07-02T08:38:23;20.80;99.90
32877;DHT22;19226;51.600;8.034;2023-07-02T08:41:08;20.80;99.90
32877;DHT22;19226;51.600;8.034;2023-07-02T08:43:55;21.00;99.90
32877;DHT22;19226;51.600;8.034;2023-07-02T08:46:41;21.20;99.90
32877;DHT22;19226;51.600;8.034;2023-07-02T08:49:26;21.20;99.90
32877;DHT22;19226;51.600;8.034;2023-07-02T08:52:11;21.20;99.90
32877;DHT22;19226;51.600;8.034;2023-07-02T08:54:57;21.20;99.90
32877;DHT22;19226;51.600;8.034;2023-07-02T08:57:49;21.10;99.90
32877;DHT22;19226;51.600;8.034;2023-07-02T09:00:33;21.00;99.90
32877;DHT22;19226;51.600;8.034;2023-07-02T09:03:21;21.20;99.90
32877;DHT22;19226;51.600;8.034;2023-07-02T09:06:11;21.30;99.90
32877;DHT22;19226;51.600;8.034;2023-07-02T09:09:04;21.40;99.90
32877;DHT22;19226;51.600;8.034;2023-07-02T09:11:50;21.40;99.90
32877;DHT22;19226;51.600;8.034;2023-07-02T09:14:34;21.30;99.90
32877;DHT22;19226;51.600;8.034;2023-07-02T09:17:19;21.40;99.90
32877;DHT22;19226;51.600;8.034;2023-07-02T09:20:07;21.40;99.90
32877;DHT22;19226;51.600;8.034;2023-07-02T09:22:55;21.60;99.90
32877;DHT22;19226;51.600;8.034;2023-07-02T09:25:40;21.70;99.90
32877;DHT22;19226;51.600;8.034;2023-07-02T09:28:25;21.70;99.90
32877;DHT22;19226;51.600;8.034;2023-07-02T09:31:09;21.80;99.90
32877;DHT22;19226;51.600;8.034;2023-07-02T09:34:01;21.80;99.90
32877;DHT22;19226;51.600;8.034;2023-07-02T09:36:46;21.90;99.90
32877;DHT22;19226;51.600;8.034;2023-07-02T09:39:32;21.90;99.90
32877;DHT22;19226;51.600;8.034;2023-07-02T09:42:17;21.80;99.90
32877;DHT22;19226;51.600;8.034;2023-07-02T09:45:07;21.90;99.90
32877;DHT22;19226;51.600;8.034;2023-07-02T09:47:52;22.00;99.90
32877;DHT22;19226;51.600;8.034;2023-07-02T09:50:41;21.90;99.90
32877;DHT22;19226;51.600;8.034;2023-07-02T09:53:28;21.90;99.90
32877;DHT22;19226;51.600;8.034;2023-07-02T09:56:12;22.00;99.90
32877;DHT22;19226;51.600;8.034;2023-07-02T09:58:57;22.20;99.90
32877;DHT22;19226;51.600;8.034;2023-07-02T10:01:42;22.30;99.90
32877;DHT22;19226;51.600;8.034;2023-07-02T10:04:27;22.50;99.90
32877;DHT22;19226;51.600;8.034;2023-07-02T10:07:13;22.70;99.90
32877;DHT22;19226;51.600;8.034;2023-07-02T10:10:09;22.70;99.90
32877;DHT22;19226;51.600;8.034;2023-07-02T10:12:54;22.70;99.90
32877;DHT22;19226;51.600;8.034;2023-07-02T10:15:38;22.70;99.90
32877;DHT22;19226;51.600;8.034;2023-07-02T10:18:26;22.60;99.90
32877;DHT22;19226;51.600;8.034;2023-07-02T10:21:17;22.80;99.90
32877;DHT22;19226;51.600;8.034;2023-07-02T10:24:12;22.90;99.90
32877;DHT22;19226;51.600;8.034;2023-07-02T10:27:03;23.00;99.90
32877;DHT22;19226;51.600;8.034;2023-07-02T10:29:52;22.90;99.90
32877;DHT22;19226;51.600;8.034;2023-07-02T10:32:42;22.80;99.90
32877;DHT22;19226;51.600;8.034;2023-07-02T10:35:33;22.80;99.90
32877;DHT22;19226;51.600;8.034;2023-07-02T10:38:23;22.90;99.90
32877;DHT22;19226;51.600;8.034;2023-07-02T10:41:08;23.10;99.90
32877;DHT22;19226;51.600;8.034;2023-07-02T10:43:53;23.20;99.90
32877;DHT22;19226;51.600;8.034;2023-07-02T10:46:48;23.10;99.90
32877;DHT22;19226;51.600;8.034;2023-07-02T10:49:33;23.20;99.90
32877;DHT22;19226;51.600;8.034;2023-07-02T10:52:18;23.30;99.90
32877;DHT22;19226;51.600;8.034;2023-07-02T10:55:02;23.30;99.90
32877;DHT22;19226;51.600;8.034;2023-07-02T10:57:50;23.20;99.90
32877;DHT22;19226;51.600;8.034;2023-07-02T11:00:45;23.10;99.90
32877;DHT22;19226;51.600;8.034;2023-07-02T11:03:30;23.20;99.90
32877;DHT22;19226;51.600;8.034;2023-07-02T11:06:14;23.20;99.90
32877;DHT22;19226;51.600;8.034;2023-07-02T11:08:59;23.30;99.90
32877;DHT22;19226;51.600;8.034;2023-07-02T11:11:55;23.30;99.90
32877;DHT22;19226;51.600;8.034;2023-07-02T11:14:40;23.40;99.90
32877;DHT22;19226;51.600;8.034;2023-07-02T11:17:25;23.30;99.90
32877;DHT22;19226;51.600;8.034;2023-07-02T11:20:12;23.30;99.90
32877;DHT22;19226;51.600;8.034;2023-07-02T11:23:01;23.30;99.90
32877;DHT22;19226;51.600;8.034;2023-07-02T11:25:59;23.30;99.90
32877;DHT22;19226;51.600;8.034;2023-07-02T11:28:49;23.40;99.90
32877;DHT22;19226;51.600;8.034;2023-07-02T11:31:37;23.30;99.90
32877;DHT22;19226;51.600;8.034;2023-07-02T11:34:22;23.30;99.90
32877;DHT22;19226;51.600;8.034;2023-07-02T11:37:07;23.40;99.90
32877;DHT22;19226;51.600;8.034;2023-07-02T11:39:53;23.70;99.90
32877;DHT22;19226;51.600;8.034;2023-07-02T11:42:38;23.90;99.90
32877;DHT22;19226;51.600;8.034;2023-07-02T11:45:22;24.10;99.90
32877;DHT22;19226;51.600;8.034;2023-07-02T11:48:07;24.20;99.90
32877;DHT22;19226;51.600;8.034;2023-07-02T11:50:51;24.40;99.90
32877;DHT22;19226;51.600;8.034;2023-07-02T11:53:36;24.50;99.90
32877;DHT22;19226;51.600;8.034;2023-07-02T11:56:20;24.60;99.90
32877;DHT22;19226;51.600;8.034;2023-07-02T11:59:05;24.60;99.90
32877;DHT22;19226;51.600;8.034;2023-07-02T12:01:49;24.60;99.90
32877;DHT22;19226;51.600;8.034;2023-07-02T12:04:34;24.60;99.90
32877;DHT22;19226;51.600;8.034;2023-07-02T12:07:18;24.60;99.90
32877;DHT22;19226;51.600;8.034;2023-07-02T12:10:03;24.60;99.90
32877;DHT22;19226;51.600;8.034;2023-07-02T12:12:48;24.60;99.90
32877;DHT22;19226;51.600;8.034;2023-07-02T12:15:32;24.80;99.90
32877;DHT22;19226;51.600;8.034;2023-07-02T12:18:17;24.60;99.90
32877;DHT22;19226;51.600;8.034;2023-07-02T12:21:01;24.50;99.90
32877;DHT22;19226;51.600;8.034;2023-07-02T12:23:46;24.50;99.90
32877;DHT22;19226;51.600;8.034;2023-07-02T12:26:31;24.70;99.90
32877;DHT22;19226;51.600;8.034;2023-07-02T12:29:16;24.70;99.90
32877;DHT22;19226;51.600;8.034;2023-07-02T12:32:00;24.70;99.90
32877;DHT22;19226;51.600;8.034;2023-07-02T12:34:45;24.70;99.90
32877;DHT22;19226;51.600;8.034;2023-07-02T12:37:29;24.60;99.90
32877;DHT22;19226;51.600;8.034;2023-07-02T12:40:14;24.50;99.90
32877;DHT22;19226;51.600;8.034;2023-07-02T12:42:58;24.40;99.90
32877;DHT22;19226;51.600;8.034;2023-07-02T12:45:43;24.60;99.90
32877;DHT22;19226;51.600;8.034;2023-07-02T12:48:28;24.70;99.90
32877;DHT22;19226;51.600;8.034;2023-07-02T12:51:12;24.70;99.90
32877;DHT22;19226;51.600;8.034;2023-07-02T12:53:57;24.80;99.90
32877;DHT22;19226;51.600;8.034;2023-07-02T12:56:42;24.90;99.90
32877;DHT22;19226;51.600;8.034;2023-07-02T12:59:27;25.00;99.90
32877;DHT22;19226;51.600;8.034;2023-07-02T13:02:11;25.10;99.90
32877;DHT22;19226;51.600;8.034;2023-07-02T13:04:56;25.20;99.90
32877;DHT22;19226;51.600;8.034;2023-07-02T13:07:40;25.10;99.90
32877;DHT22;19226;51.600;8.034;2023-07-02T13:10:25;25.20;99.90
32877;DHT22;19226;51.600;8.034;2023-07-02T13:13:09;25.20;99.00
32877;DHT22;19226;51.600;8.034;2023-07-02T13:15:54;25.30;99.80
32877;DHT22;19226;51.600;8.034;2023-07-02T13:18:38;25.20;99.50
32877;DHT22;19226;51.600;8.034;2023-07-02T13:21:23;25.00;97.70
32877;DHT22;19226;51.600;8.034;2023-07-02T13:24:07;25.00;99.70
32877;DHT22;19226;51.600;8.034;2023-07-02T13:26:52;25.10;97.40
32877;DHT22;19226;51.600;8.034;2023-07-02T13:29:37;25.10;98.30
32877;DHT22;19226;51.600;8.034;2023-07-02T13:32:21;25.10;98.40
32877;DHT22;19226;51.600;8.034;2023-07-02T13:35:06;25.20;99.60
32877;DHT22;19226;51.600;8.034;2023-07-02T13:37:50;25.30;99.90
32877;DHT22;19226;51.600;8.034;2023-07-02T13:40:35;25.40;99.90
32877;DHT22;19226;51.600;8.034;2023-07-02T13:43:19;25.50;99.50
32877;DHT22;19226;51.600;8.034;2023-07-02T13:46:04;25.40;95.30
32877;DHT22;19226;51.600;8.034;2023-07-02T13:48:49;25.30;93.70
32877;DHT22;19226;51.600;8.034;2023-07-02T13:51:33;25.20;94.40
32877;DHT22;19226;51.600;8.034;2023-07-02T13:54:18;25.20;94.60
32877;DHT22;19226;51.600;8.034;2023-07-02T13:57:03;25.10;93.60
32877;DHT22;19226;51.600;8.034;2023-07-02T13:59:47;25.20;95.60
32877;DHT22;19226;51.600;8.034;2023-07-02T14:02:32;25.20;95.80
32877;DHT22;19226;51.600;8.034;2023-07-02T14:05:17;25.50;96.70
32877;DHT22;19226;51.600;8.034;2023-07-02T14:08:01;25.80;96.80
32877;DHT22;19226;51.600;8.034;2023-07-02T14:10:46;26.00;95.90
32877;DHT22;19226;51.600;8.034;2023-07-02T14:13:30;26.00;96.00
32877;DHT22;19226;51.600;8.034;2023-07-02T14:16:15;25.90;95.80
32877;DHT22;19226;51.600;8.034;2023-07-02T14:19:00;25.80;94.10
32877;DHT22;19226;51.600;8.034;2023-07-02T14:21:45;25.90;95.60
32877;DHT22;19226;51.600;8.034;2023-07-02T14:24:30;26.20;97.10
32877;DHT22;19226;51.600;8.034;2023-07-02T14:27:15;26.10;92.40
32877;DHT22;19226;51.600;8.034;2023-07-02T14:29:59;25.90;92.40
32877;DHT22;19226;51.600;8.034;2023-07-02T14:32:46;25.80;93.70
32877;DHT22;19226;51.600;8.034;2023-07-02T14:35:31;25.70;95.80
32877;DHT22;19226;51.600;8.034;2023-07-02T14:38:15;26.00;96.50
32877;DHT22;19226;51.600;8.034;2023-07-02T14:41:00;26.10;95.30
32877;DHT22;19226;51.600;8.034;2023-07-02T14:43:45;26.00;94.40
32877;DHT22;19226;51.600;8.034;2023-07-02T14:46:30;26.00;95.70
32877;DHT22;19226;51.600;8.034;2023-07-02T14:49:15;26.00;95.70
32877;DHT22;19226;51.600;8.034;2023-07-02T14:51:59;26.00;95.20
32877;DHT22;19226;51.600;8.034;2023-07-02T14:54:43;26.10;95.50
32877;DHT22;19226;51.600;8.034;2023-07-02T14:57:28;26.20;94.90
32877;DHT22;19226;51.600;8.034;2023-07-02T15:00:13;26.20;93.90
32877;DHT22;19226;51.600;8.034;2023-07-02T15:02:58;26.20;95.80
32877;DHT22;19226;51.600;8.034;2023-07-02T15:05:45;26.10;94.70
32877;DHT22;19226;51.600;8.034;2023-07-02T15:08:29;25.90;93.60
32877;DHT22;19226;51.600;8.034;2023-07-02T15:11:15;25.80;95.00
32877;DHT22;19226;51.600;8.034;2023-07-02T15:13:59;25.80;96.20
32877;DHT22;19226;51.600;8.034;2023-07-02T15:16:44;25.50;95.10
32877;DHT22;19226;51.600;8.034;2023-07-02T15:19:28;25.50;96.40
32877;DHT22;19226;51.600;8.034;2023-07-02T15:22:13;25.60;97.60
32877;DHT22;19226;51.600;8.034;2023-07-02T15:24:57;25.80;97.90
32877;DHT22;19226;51.600;8.034;2023-07-02T15:27:43;25.80;97.00
32877;DHT22;19226;51.600;8.034;2023-07-02T15:30:27;25.60;97.20
32877;DHT22;19226;51.600;8.034;2023-07-02T15:33:13;25.60;95.90
32877;DHT22;19226;51.600;8.034;2023-07-02T15:35:59;25.90;97.20
32877;DHT22;19226;51.600;8.034;2023-07-02T15:38:44;26.00;97.60
32877;DHT22;19226;51.600;8.034;2023-07-02T15:41:32;25.80;95.00
32877;DHT22;19226;51.600;8.034;2023-07-02T15:44:16;25.70;96.40
32877;DHT22;19226;51.600;8.034;2023-07-02T15:47:01;25.70;97.20
32877;DHT22;19226;51.600;8.034;2023-07-02T15:49:48;25.90;96.30
32877;DHT22;19226;51.600;8.034;2023-07-02T15:52:32;26.10;95.70
32877;DHT22;19226;51.600;8.034;2023-07-02T15:55:18;26.00;97.40
32877;DHT22;19226;51.600;8.034;2023-07-02T15:58:02;25.90;96.70
32877;DHT22;19226;51.600;8.034;2023-07-02T16:00:47;25.90;97.10
32877;DHT22;19226;51.600;8.034;2023-07-02T16:03:32;26.10;97.30
32877;DHT22;19226;51.600;8.034;2023-07-02T16:06:16;25.90;97.20
32877;DHT22;19226;51.600;8.034;2023-07-02T16:09:02;26.10;99.20
32877;DHT22;19226;51.600;8.034;2023-07-02T16:11:47;26.00;97.60
32877;DHT22;19226;51.600;8.034;2023-07-02T16:14:33;26.00;98.30
32877;DHT22;19226;51.600;8.034;2023-07-02T16:17:17;25.80;96.90
32877;DHT22;19226;51.600;8.034;2023-07-02T16:20:02;25.80;98.30
32877;DHT22;19226;51.600;8.034;2023-07-02T16:22:48;26.00;99.00
32877;DHT22;19226;51.600;8.034;2023-07-02T16:25:33;26.10;99.00
32877;DHT22;19226;51.600;8.034;2023-07-02T16:28:17;25.90;97.10
32877;DHT22;19226;51.600;8.034;2023-07-02T16:31:02;25.70;98.30
32877;DHT22;19226;51.600;8.034;2023-07-02T16:33:47;25.70;98.40
32877;DHT22;19226;51.600;8.034;2023-07-02T16:36:32;25.60;98.60
32877;DHT22;19226;51.600;8.034;2023-07-02T16:39:17;25.70;98.30
32877;DHT22;19226;51.600;8.034;2023-07-02T16:42:02;25.60;98.40
32877;DHT22;19226;51.600;8.034;2023-07-02T16:44:47;25.60;98.50
32877;DHT22;19226;51.600;8.034;2023-07-02T16:47:34;25.50;99.10
32877;DHT22;19226;51.600;8.034;2023-07-02T16:50:19;25.60;99.40
32877;DHT22;19226;51.600;8.034;2023-07-02T16:53:04;25.10;98.60
32877;DHT22;19226;51.600;8.034;2023-07-02T16:55:48;25.00;99.30
32877;DHT22;19226;51.600;8.034;2023-07-02T16:58:33;24.90;99.80
32877;DHT22;19226;51.600;8.034;2023-07-02T17:01:17;24.90;99.90
32877;DHT22;19226;51.600;8.034;2023-07-02T17:04:01;24.90;99.90
32877;DHT22;19226;51.600;8.034;2023-07-02T17:06:52;24.80;99.90
32877;DHT22;19226;51.600;8.034;2023-07-02T17:09:37;24.80;99.90
32877;DHT22;19226;51.600;8.034;2023-07-02T17:12:24;24.60;99.90
32877;DHT22;19226;51.600;8.034;2023-07-02T17:15:09;24.50;99.90
32877;DHT22;19226;51.600;8.034;2023-07-02T17:17:54;24.40;99.90
32877;DHT22;19226;51.600;8.034;2023-07-02T17:20:38;24.40;99.90
32877;DHT22;19226;51.600;8.034;2023-07-02T17:23:23;24.40;99.90